createdAt,value
2022-11-08T00:00:16.129Z,73.36
2022-11-08T00:02:44.364Z,74.82
2022-11-08T00:05:31.258Z,74.14
2022-11-08T00:08:18.297Z,75.92
2022-11-08T00:11:05.367Z,76.02
2022-11-08T00:13:52.098Z,75.30
2022-11-08T00:16:20.027Z,78.77
2022-11-08T00:18:48.308Z,80.71
2022-11-08T00:21:16.179Z,78.45
2022-11-08T00:23:44.399Z,78.85
2022-11-08T00:26:12.713Z,76.98
2022-11-08T00:28:40.751Z,74.29
2022-11-08T00:31:08.759Z,78.41
2022-11-08T00:33:37.658Z,77.92
2022-11-08T00:36:05.889Z,77.65
2022-11-08T00:38:33.947Z,78.18
2022-11-08T00:41:02.218Z,76.64
2022-11-08T00:43:30.036Z,79.12
2022-11-08T00:45:58.001Z,83.84
2022-11-08T00:48:26.310Z,82.13
2022-11-08T00:50:54.219Z,82.60
2022-11-08T00:53:22.518Z,80.38
2022-11-08T00:56:01.737Z,78.08
2022-11-08T00:58:29.875Z,76.58
2022-11-08T01:00:58.870Z,77.83
2022-11-08T01:03:26.966Z,75.50
2022-11-08T01:05:55.531Z,74.70
2022-11-08T01:08:24.968Z,75.59
2022-11-08T01:10:53.308Z,76.13
2022-11-08T01:13:22.218Z,76.51
2022-11-08T01:15:50.443Z,75.83
2022-11-08T01:18:18.959Z,72.78
2022-11-08T01:20:49.000Z,75.89
2022-11-08T01:23:19.797Z,74.32
2022-11-08T01:25:48.933Z,73.89
2022-11-08T01:28:17.761Z,75.05
2022-11-08T01:30:46.428Z,74.72
2022-11-08T01:33:15.329Z,75.57
2022-11-08T01:35:45.459Z,76.28
2022-11-08T01:38:13.719Z,75.92
2022-11-08T01:40:46.799Z,77.14
2022-11-08T01:43:30.130Z,75.40
2022-11-08T01:46:18.960Z,75.33
2022-11-08T01:48:52.351Z,76.65
2022-11-08T01:51:23.216Z,76.73
2022-11-08T01:53:51.460Z,75.92
2022-11-08T01:56:19.957Z,77.29
2022-11-08T01:58:48.918Z,76.12
2022-11-08T02:01:17.099Z,75.98
2022-11-08T02:03:45.439Z,75.04
2022-11-08T02:06:13.730Z,77.11
2022-11-08T02:08:42.877Z,77.67
2022-11-08T02:11:13.706Z,76.52
2022-11-08T02:13:41.807Z,76.54
2022-11-08T02:16:14.768Z,74.97
2022-11-08T02:18:46.636Z,75.71
2022-11-08T02:21:20.978Z,75.83
2022-11-08T02:23:54.159Z,75.25
2022-11-08T02:26:30.259Z,74.21
2022-11-08T02:28:59.325Z,76.21
2022-11-08T02:31:27.280Z,74.71
2022-11-08T02:33:55.179Z,75.45
2022-11-08T02:36:24.999Z,76.01
2022-11-08T02:38:55.028Z,78.51
2022-11-08T02:41:23.560Z,75.66
2022-11-08T02:43:51.408Z,76.32
2022-11-08T02:46:19.299Z,73.46
2022-11-08T02:48:47.519Z,72.44
2022-11-08T02:51:15.509Z,71.89
2022-11-08T02:53:43.568Z,74.68
2022-11-08T02:56:11.856Z,74.73
2022-11-08T02:58:39.719Z,78.52
2022-11-08T03:01:07.715Z,75.91
2022-11-08T03:03:36.041Z,74.86
2022-11-08T03:06:04.057Z,73.34
2022-11-08T03:08:31.857Z,84.55
2022-11-08T03:11:00.989Z,83.66
2022-11-08T03:13:28.969Z,83.56
2022-11-08T03:15:56.788Z,81.03
2022-11-08T03:18:24.987Z,75.52
2022-11-08T03:20:52.878Z,76.79
2022-11-08T03:23:20.948Z,74.50
2022-11-08T03:25:49.217Z,73.08
2022-11-08T03:28:21.595Z,73.89
2022-11-08T03:30:52.618Z,73.91
2022-11-08T03:33:21.146Z,73.33
2022-11-08T03:35:49.968Z,73.00
2022-11-08T03:38:18.567Z,73.45
2022-11-08T03:40:47.011Z,74.73
2022-11-08T03:43:15.297Z,77.50
2022-11-08T03:45:43.610Z,76.32
2022-11-08T03:48:11.520Z,76.73
2022-11-08T03:50:39.445Z,76.98
2022-11-08T03:53:07.677Z,73.64
2022-11-08T03:55:35.707Z,74.39
2022-11-08T03:58:03.688Z,75.35
2022-11-08T04:00:32.072Z,76.49
2022-11-08T04:03:03.186Z,78.17
2022-11-08T04:05:32.680Z,75.36
2022-11-08T04:08:01.979Z,74.56
2022-11-08T04:10:29.839Z,74.95
2022-11-08T04:13:18.481Z,77.26
2022-11-08T04:15:47.724Z,77.88
2022-11-08T04:18:34.487Z,86.39
2022-11-08T04:21:22.098Z,89.56
2022-11-08T04:23:51.577Z,90.60
2022-11-08T04:26:21.779Z,86.39
2022-11-08T04:28:49.731Z,82.03
2022-11-08T04:31:19.841Z,81.92
2022-11-08T04:33:48.156Z,78.70
2022-11-08T04:36:17.088Z,78.51
2022-11-08T04:38:48.794Z,78.05
2022-11-08T04:41:21.443Z,78.60
2022-11-08T04:43:50.737Z,78.23
2022-11-08T04:46:21.255Z,79.20
2022-11-08T04:48:51.926Z,77.90
2022-11-08T04:51:31.498Z,78.53
2022-11-08T04:54:00.827Z,79.65
2022-11-08T04:56:30.517Z,79.61
2022-11-08T04:58:59.886Z,79.87
2022-11-08T05:01:30.217Z,78.62
2022-11-08T05:03:58.967Z,80.65
2022-11-08T05:06:29.357Z,80.91
2022-11-08T05:08:58.300Z,80.66
2022-11-08T05:11:28.479Z,81.61
2022-11-08T05:13:57.126Z,82.41
2022-11-08T05:16:30.068Z,82.82
2022-11-08T05:18:58.827Z,82.74
2022-11-08T05:21:45.514Z,82.48
2022-11-08T05:24:14.288Z,82.49
2022-11-08T05:26:43.569Z,84.78
2022-11-08T05:29:12.219Z,86.40
2022-11-08T05:31:41.223Z,88.39
2022-11-08T05:34:09.247Z,88.04
2022-11-08T05:36:37.228Z,88.27
2022-11-08T05:39:05.477Z,85.30
2022-11-08T05:41:33.358Z,83.27
2022-11-08T05:44:01.357Z,82.92
2022-11-08T05:46:31.459Z,85.26
2022-11-08T05:48:59.481Z,86.93
2022-11-08T05:51:27.448Z,87.24
2022-11-08T05:53:55.736Z,88.22
2022-11-08T05:56:23.646Z,89.91
2022-11-08T05:58:51.685Z,90.21
2022-11-08T06:01:20.691Z,90.28
2022-11-08T06:03:49.131Z,90.38
2022-11-08T06:06:19.893Z,91.43
2022-11-08T06:08:50.701Z,91.89
2022-11-08T06:11:22.487Z,90.19
2022-11-08T06:13:51.611Z,88.41
2022-11-08T06:16:20.932Z,84.55
2022-11-08T06:18:49.476Z,86.01
2022-11-08T06:21:19.930Z,88.70
2022-11-08T06:23:48.744Z,89.65
2022-11-08T06:26:16.627Z,89.90
2022-11-08T06:28:44.927Z,86.58
2022-11-08T06:31:13.077Z,84.38
2022-11-08T06:33:41.050Z,82.99
2022-11-08T06:36:09.515Z,86.05
2022-11-08T06:38:37.469Z,86.30
2022-11-08T06:41:05.478Z,87.38
2022-11-08T06:43:34.335Z,88.29
2022-11-08T06:46:02.848Z,86.04
2022-11-08T06:48:35.591Z,85.70
2022-11-08T06:51:05.098Z,82.92
2022-11-08T06:53:33.544Z,86.07
2022-11-08T06:56:02.263Z,87.84
2022-11-08T06:58:31.019Z,86.97
2022-11-08T07:00:58.978Z,86.88
2022-11-08T07:03:27.029Z,85.94
2022-11-08T07:05:55.459Z,89.21
2022-11-08T07:08:24.474Z,90.11
2022-11-08T07:10:52.585Z,86.71
2022-11-08T07:13:21.220Z,87.47
2022-11-08T07:15:49.569Z,89.55
2022-11-08T07:18:19.163Z,87.87
2022-11-08T07:20:47.529Z,89.04
2022-11-08T07:23:15.529Z,87.76
2022-11-08T07:25:43.620Z,88.17
2022-11-08T07:28:16.257Z,90.93
2022-11-08T07:30:45.540Z,93.15
2022-11-08T07:33:14.705Z,91.43
2022-11-08T07:35:45.791Z,93.78
2022-11-08T07:38:14.097Z,93.32
2022-11-08T07:40:42.176Z,90.86
2022-11-08T07:43:12.236Z,89.07
2022-11-08T07:45:42.063Z,89.83
2022-11-08T07:48:13.609Z,94.17
2022-11-08T07:50:43.090Z,91.38
2022-11-08T07:53:11.252Z,92.96
2022-11-08T07:55:42.379Z,94.14
2022-11-08T07:58:11.488Z,93.21
2022-11-08T08:00:40.680Z,92.98
2022-11-08T08:03:11.071Z,93.20
2022-11-08T08:05:41.772Z,92.01
2022-11-08T08:08:12.694Z,92.48
2022-11-08T08:10:41.329Z,90.66
2022-11-08T08:13:09.701Z,88.19
2022-11-08T08:15:37.972Z,89.73
2022-11-08T08:18:07.544Z,89.89
2022-11-08T08:20:37.597Z,89.98
2022-11-08T08:23:06.975Z,90.00
2022-11-08T08:25:35.439Z,89.56
2022-11-08T08:28:03.550Z,89.77
2022-11-08T08:30:32.002Z,88.45
2022-11-08T08:33:34.427Z,86.66
2022-11-08T08:36:02.953Z,85.87
2022-11-08T08:38:32.534Z,88.98
2022-11-08T08:41:01.380Z,85.65
2022-11-08T08:43:32.765Z,86.27
2022-11-08T08:46:03.033Z,85.94
2022-11-08T08:48:31.390Z,86.58
2022-11-08T08:50:59.893Z,87.64
2022-11-08T08:53:28.232Z,88.92
2022-11-08T08:55:56.238Z,88.52
2022-11-08T08:58:24.438Z,90.10
2022-11-08T09:03:40.598Z,85.83
2022-11-08T09:06:09.327Z,87.57
2022-11-08T09:08:37.468Z,87.46
2022-11-08T09:11:06.136Z,88.95
2022-11-08T09:13:34.457Z,91.20
2022-11-08T09:16:03.976Z,88.66
2022-11-08T09:18:32.744Z,84.32
2022-11-08T09:21:03.460Z,82.58
2022-11-08T09:24:17.407Z,77.49
2022-11-08T09:26:45.768Z,79.82
2022-11-08T09:29:13.956Z,81.17
2022-11-08T09:31:41.958Z,80.06
2022-11-08T09:34:10.267Z,76.32
2022-11-08T09:36:38.211Z,76.37
2022-11-08T09:39:06.349Z,75.81
2022-11-08T09:41:55.645Z,75.07
2022-11-08T09:44:50.076Z,76.61
2022-11-08T09:47:25.783Z,69.78
2022-11-08T09:50:46.532Z,70.56
2022-11-08T09:53:19.501Z,71.37
2022-11-08T09:56:04.997Z,70.77
2022-11-08T09:58:41.435Z,68.85
2022-11-08T10:01:11.904Z,68.12
2022-11-08T10:03:43.950Z,68.12
2022-11-08T10:06:46.006Z,67.80
2022-11-08T10:09:33.298Z,64.65
2022-11-08T10:12:01.127Z,69.62
2022-11-08T10:14:48.981Z,64.78
2022-11-08T10:17:41.489Z,61.92
2022-11-08T10:20:16.044Z,60.34
2022-11-08T10:22:44.154Z,54.03
2022-11-08T10:25:45.922Z,56.00
2022-11-08T10:28:19.396Z,52.61
2022-11-08T10:30:50.040Z,52.71
2022-11-08T10:33:25.650Z,56.05
2022-11-08T10:36:02.459Z,51.36
2022-11-08T10:38:37.415Z,53.56
2022-11-08T10:41:22.228Z,50.71
2022-11-08T10:44:09.621Z,52.29
2022-11-08T10:46:58.132Z,50.42
2022-11-08T10:49:36.568Z,51.57
2022-11-08T10:52:28.425Z,55.42
2022-11-08T10:54:58.627Z,51.66
2022-11-08T10:57:33.027Z,48.50
2022-11-08T11:00:20.609Z,48.39
2022-11-08T11:02:54.147Z,49.09
2022-11-08T11:05:38.437Z,51.02
2022-11-08T11:08:09.887Z,49.99
2022-11-08T11:10:48.497Z,50.85
2022-11-08T11:13:29.190Z,51.40
2022-11-08T11:15:57.677Z,53.03
2022-11-08T11:18:37.804Z,51.93
2022-11-08T11:21:10.557Z,50.44
2022-11-08T11:23:54.207Z,51.31
2022-11-08T11:26:33.008Z,52.22
2022-11-08T11:29:04.330Z,55.64
2022-11-08T11:31:43.419Z,59.83
2022-11-08T11:34:17.609Z,59.44
2022-11-08T11:37:02.334Z,61.66
2022-11-08T11:39:33.528Z,61.78
2022-11-08T11:42:24.148Z,65.72
2022-11-08T11:45:09.526Z,65.74
2022-11-08T11:47:48.118Z,68.56
2022-11-08T11:50:35.170Z,69.91
2022-11-08T11:53:07.267Z,68.91
2022-11-08T11:55:44.967Z,71.24
2022-11-08T11:58:19.164Z,70.57
2022-11-08T12:01:00.621Z,72.76
2022-11-08T12:03:38.227Z,72.93
2022-11-08T12:06:24.816Z,70.81
2022-11-08T12:09:11.729Z,69.67
2022-11-08T12:11:59.609Z,71.31
2022-11-08T12:14:38.727Z,74.75
2022-11-08T12:17:41.877Z,73.50
2022-11-08T12:20:26.785Z,73.35
2022-11-08T12:23:29.274Z,72.26
2022-11-08T12:26:16.698Z,72.30
2022-11-08T12:29:04.800Z,73.64
2022-11-08T12:31:53.266Z,72.06
2022-11-08T12:34:33.335Z,73.07
2022-11-08T12:37:20.595Z,73.36
2022-11-08T12:39:53.742Z,71.58
2022-11-08T12:42:33.707Z,71.54
2022-11-08T12:45:26.768Z,69.37
2022-11-08T12:48:04.286Z,69.51
2022-11-08T12:51:09.219Z,70.20
2022-11-08T12:53:44.836Z,68.87
2022-11-08T12:56:25.907Z,68.55
2022-11-08T12:58:55.214Z,69.45
2022-11-08T13:01:23.955Z,70.66
2022-11-08T13:04:25.867Z,71.28
2022-11-08T13:07:17.692Z,69.71
2022-11-08T13:09:53.137Z,69.47
2022-11-08T13:12:49.396Z,69.28
2022-11-08T13:15:20.414Z,71.30
2022-11-08T13:18:07.157Z,71.05
2022-11-08T13:20:42.417Z,71.79
2022-11-08T13:23:31.057Z,71.30
2022-11-08T13:26:19.795Z,70.44
2022-11-08T13:28:49.399Z,68.89
2022-11-08T13:31:22.506Z,70.74
2022-11-08T13:34:02.827Z,70.56
2022-11-08T13:37:01.819Z,70.38
2022-11-08T13:39:45.384Z,69.49
2022-11-08T13:42:16.542Z,69.15
2022-11-08T13:45:16.996Z,70.07
2022-11-08T13:47:44.877Z,70.54
2022-11-08T13:50:34.167Z,70.04
2022-11-08T13:53:09.506Z,70.65
2022-11-08T13:55:43.730Z,70.65
2022-11-08T13:58:44.134Z,70.84
2022-11-08T14:01:18.718Z,70.64
2022-11-08T14:03:47.124Z,72.59
2022-11-08T14:06:36.503Z,70.37
2022-11-08T14:09:23.347Z,72.65
2022-11-08T14:12:18.958Z,73.09
2022-11-08T14:15:07.439Z,72.66
2022-11-08T14:17:59.766Z,70.05
2022-11-08T14:20:37.816Z,74.66
2022-11-08T14:23:13.589Z,73.17
2022-11-08T14:25:43.297Z,73.49
2022-11-08T14:28:34.166Z,72.54
2022-11-08T14:31:05.654Z,75.53
2022-11-08T14:33:41.986Z,73.82
2022-11-08T14:36:15.851Z,73.62
2022-11-08T14:39:04.376Z,73.87
2022-11-08T14:41:33.733Z,74.27
2022-11-08T14:44:02.426Z,73.74
2022-11-08T14:46:35.790Z,73.54
2022-11-08T14:49:23.107Z,73.35
2022-11-08T14:52:15.066Z,73.26
2022-11-08T14:54:45.566Z,74.56
2022-11-08T14:57:33.198Z,76.43
2022-11-08T15:00:05.650Z,75.26
2022-11-08T15:02:33.961Z,78.20
2022-11-08T15:05:02.518Z,76.07
2022-11-08T15:07:30.613Z,75.79
2022-11-08T15:10:07.487Z,75.71
2022-11-08T15:12:41.097Z,74.86
2022-11-08T15:15:25.640Z,76.02
2022-11-08T15:18:14.180Z,75.87
2022-11-08T15:20:55.440Z,76.59
2022-11-08T15:23:47.044Z,77.37
2022-11-08T15:26:35.358Z,79.09
2022-11-08T15:29:07.249Z,79.00
2022-11-08T15:31:40.819Z,77.54
2022-11-08T15:34:42.944Z,78.84
2022-11-08T15:37:21.526Z,79.44
2022-11-08T15:39:51.527Z,80.17
2022-11-08T15:42:19.640Z,80.61
2022-11-08T15:45:06.628Z,79.60
2022-11-08T15:47:44.159Z,79.23
2022-11-08T15:50:23.627Z,81.36
2022-11-08T15:52:54.472Z,81.42
2022-11-08T15:55:38.699Z,81.99
2022-11-08T15:58:16.148Z,81.40
2022-11-08T16:00:48.627Z,83.02
2022-11-08T16:03:17.278Z,84.67
2022-11-08T16:05:45.496Z,85.72
2022-11-08T16:08:18.684Z,84.22
2022-11-08T16:10:50.950Z,84.85
2022-11-08T16:13:29.077Z,85.18
2022-11-08T16:15:58.361Z,84.67
2022-11-08T16:18:26.937Z,85.72
2022-11-08T16:20:54.811Z,85.21
2022-11-08T16:23:23.266Z,85.18
2022-11-08T16:25:52.515Z,84.35
2022-11-08T16:28:24.775Z,84.47
2022-11-08T16:30:53.866Z,88.18
2022-11-08T16:33:27.028Z,87.58
2022-11-08T16:35:57.218Z,87.05
2022-11-08T16:38:30.529Z,85.91
2022-11-08T16:40:59.037Z,87.57
2022-11-08T16:43:27.084Z,90.84
2022-11-08T16:46:05.274Z,88.28
2022-11-08T16:48:36.278Z,89.27
2022-11-08T16:51:06.647Z,90.04
2022-11-08T16:53:36.969Z,89.57
2022-11-08T16:56:04.992Z,88.52
2022-11-08T16:58:33.258Z,89.13
2022-11-08T17:01:04.951Z,88.78
2022-11-08T17:03:35.528Z,86.84
2022-11-08T17:06:03.868Z,87.78
2022-11-08T17:08:31.848Z,88.13
2022-11-08T17:10:59.796Z,87.27
2022-11-08T17:13:28.109Z,88.35
2022-11-08T17:15:56.101Z,86.41
2022-11-08T17:18:24.018Z,87.34
2022-11-08T17:20:52.347Z,88.19
2022-11-08T17:23:20.201Z,88.61
2022-11-08T17:25:48.218Z,89.01
2022-11-08T17:28:16.745Z,88.74
2022-11-08T17:30:44.965Z,89.85
2022-11-08T17:33:13.408Z,88.64
2022-11-08T17:35:44.213Z,90.03
2022-11-08T17:38:13.155Z,90.25
2022-11-08T17:40:42.693Z,91.35
2022-11-08T17:43:10.811Z,92.45
2022-11-08T17:45:40.137Z,91.11
2022-11-08T17:48:08.309Z,91.71
2022-11-08T17:50:36.238Z,91.60
2022-11-08T17:53:04.207Z,91.99
2022-11-08T17:55:32.573Z,92.63
2022-11-08T17:58:00.467Z,92.21
2022-11-08T18:00:28.527Z,92.17
2022-11-08T18:02:56.848Z,90.51
2022-11-08T18:05:24.808Z,90.83
2022-11-08T18:07:52.788Z,89.76
2022-11-08T18:10:21.116Z,91.56
2022-11-08T18:12:48.967Z,93.96
2022-11-08T18:15:16.897Z,92.05
2022-11-08T18:17:45.113Z,92.00
2022-11-08T18:20:13.181Z,89.88
2022-11-08T18:22:41.181Z,90.60
2022-11-08T18:25:10.053Z,90.13
2022-11-08T18:27:39.047Z,90.58
2022-11-08T18:30:07.447Z,92.00
2022-11-08T18:32:36.599Z,90.76
2022-11-08T18:35:04.957Z,91.00
2022-11-08T18:37:32.880Z,91.53
2022-11-08T18:40:01.185Z,90.64
2022-11-08T18:42:30.497Z,92.18
2022-11-08T18:44:58.318Z,89.97
2022-11-08T18:47:28.719Z,90.91
2022-11-08T18:49:59.717Z,91.53
2022-11-08T18:52:28.843Z,90.86
2022-11-08T18:54:56.747Z,91.47
2022-11-08T18:57:24.707Z,90.85
2022-11-08T18:59:56.161Z,89.44
2022-11-08T19:02:27.817Z,88.28
2022-11-08T19:04:57.359Z,89.79
2022-11-08T19:07:25.508Z,89.51
2022-11-08T19:12:38.709Z,89.40
2022-11-08T19:15:07.097Z,88.91
2022-11-08T19:17:36.577Z,89.82
2022-11-08T19:20:05.330Z,89.35
2022-11-08T19:22:33.299Z,90.42
2022-11-08T19:25:01.260Z,90.06
2022-11-08T19:27:29.505Z,88.99
2022-11-08T19:30:00.606Z,89.38
2022-11-08T19:32:28.538Z,92.95
2022-11-08T19:34:56.801Z,91.22
2022-11-08T19:37:24.708Z,88.29
2022-11-08T19:39:52.669Z,88.98
2022-11-08T19:42:20.929Z,90.03
2022-11-08T19:44:48.855Z,88.56
2022-11-08T19:47:16.818Z,88.60
2022-11-08T19:49:45.038Z,89.05
2022-11-08T19:52:13.006Z,89.51
2022-11-08T19:54:40.926Z,89.10
2022-11-08T19:57:09.149Z,88.33
2022-11-08T19:59:37.027Z,88.48
2022-11-08T20:02:04.961Z,88.48
2022-11-08T20:04:33.498Z,87.47
2022-11-08T20:07:01.537Z,87.85
2022-11-08T20:09:31.035Z,88.68
2022-11-08T20:11:59.470Z,90.00
2022-11-08T20:14:27.386Z,88.78
2022-11-08T20:16:55.870Z,88.07
2022-11-08T20:19:24.388Z,89.03
2022-11-08T20:21:55.822Z,88.01
2022-11-08T20:24:23.839Z,90.48
2022-11-08T20:26:52.239Z,88.07
2022-11-08T20:29:20.170Z,90.61
2022-11-08T20:31:51.847Z,88.09
2022-11-08T20:34:20.647Z,89.40
2022-11-08T20:36:48.708Z,89.11
2022-11-08T20:39:17.078Z,88.58
2022-11-08T20:41:45.428Z,89.15
2022-11-08T20:44:13.400Z,89.98
2022-11-08T20:46:41.274Z,87.66
2022-11-08T20:49:09.710Z,87.11
2022-11-08T20:51:38.083Z,90.79
2022-11-08T20:54:06.807Z,90.63
2022-11-08T20:56:35.068Z,90.22
2022-11-08T20:59:03.539Z,90.03
2022-11-08T21:01:33.056Z,86.44
2022-11-08T21:04:01.850Z,87.48
2022-11-08T21:06:35.560Z,86.15
2022-11-08T21:09:30.142Z,87.63
2022-11-08T21:11:53.950Z,88.15
2022-11-08T21:14:23.874Z,89.06
2022-11-08T21:17:20.255Z,89.37
2022-11-08T21:19:40.938Z,88.22
2022-11-08T21:22:18.386Z,88.11
2022-11-08T21:24:48.278Z,87.39
2022-11-08T21:27:17.126Z,89.03
2022-11-08T21:29:45.174Z,88.04
2022-11-08T21:32:13.429Z,86.19
2022-11-08T21:34:46.174Z,91.58
2022-11-08T21:37:15.277Z,89.08
2022-11-08T21:39:43.352Z,89.43
2022-11-08T21:42:11.398Z,87.01
2022-11-08T21:44:39.705Z,87.73
2022-11-08T21:47:07.630Z,87.59
2022-11-08T21:49:35.546Z,86.94
2022-11-08T21:52:04.135Z,87.56
2022-11-08T21:54:32.035Z,87.85
2022-11-08T21:57:00.159Z,86.92
2022-11-08T21:59:28.397Z,86.90
2022-11-08T22:01:56.396Z,86.07
2022-11-08T22:04:24.639Z,85.18
2022-11-08T22:06:52.858Z,86.21
2022-11-08T22:09:20.876Z,88.26
2022-11-08T22:11:49.390Z,86.73
2022-11-08T22:14:17.468Z,86.55
2022-11-08T22:16:45.476Z,87.85
2022-11-08T22:19:14.336Z,87.77
2022-11-08T22:21:44.446Z,87.79
2022-11-08T22:24:25.723Z,87.75
2022-11-08T22:26:53.985Z,87.81
2022-11-08T22:29:21.998Z,86.14
2022-11-08T22:31:50.330Z,87.09
2022-11-08T22:34:18.778Z,88.09
2022-11-08T22:36:47.310Z,89.49
2022-11-08T22:39:17.509Z,88.29
2022-11-08T22:41:47.045Z,87.38
2022-11-08T22:44:16.533Z,87.47
2022-11-08T22:46:45.718Z,87.85
2022-11-08T22:49:14.526Z,88.06
2022-11-08T22:51:42.991Z,88.80
2022-11-08T22:54:11.039Z,88.78
2022-11-08T22:56:40.567Z,89.93
2022-11-08T22:59:08.933Z,89.27
2022-11-08T23:01:36.841Z,92.12
2022-11-08T23:04:05.296Z,91.34
2022-11-08T23:06:33.180Z,91.10
2022-11-08T23:09:01.232Z,90.61
2022-11-08T23:11:47.882Z,90.12
2022-11-08T23:14:37.492Z,89.64
2022-11-08T23:17:08.350Z,90.68
2022-11-08T23:19:54.847Z,90.03
2022-11-08T23:22:41.728Z,91.26
2022-11-08T23:25:10.087Z,90.42
2022-11-08T23:27:56.928Z,91.90
2022-11-08T23:30:43.678Z,90.65
2022-11-08T23:33:12.399Z,91.54
2022-11-08T23:36:00.221Z,91.64
2022-11-08T23:38:28.568Z,90.73
2022-11-08T23:41:17.783Z,89.39
2022-11-08T23:44:04.637Z,89.68
2022-11-08T23:46:32.794Z,94.62
2022-11-08T23:49:02.008Z,91.37
2022-11-08T23:51:30.200Z,89.56
2022-11-08T23:53:58.079Z,91.13
2022-11-08T23:56:27.628Z,90.24
2022-11-08T23:58:57.885Z,88.97
